createdAt,value
2018-08-02T00:01:57.671Z,67.61
2018-08-02T00:04:29.759Z,68.91
2018-08-02T00:07:01.816Z,68.57
2018-08-02T00:09:33.852Z,68.01
2018-08-02T00:12:05.903Z,68.84
2018-08-02T00:14:37.975Z,69.26
2018-08-02T00:17:10.042Z,68.51
2018-08-02T00:19:42.103Z,68.83
2018-08-02T00:22:14.124Z,68.26
2018-08-02T00:24:46.228Z,69.20
2018-08-02T00:27:18.284Z,69.16
2018-08-02T00:29:50.353Z,69.27
2018-08-02T00:32:22.403Z,69.22
2018-08-02T00:34:54.490Z,68.87
2018-08-02T00:37:26.658Z,68.14
2018-08-02T00:39:58.733Z,69.38
2018-08-02T00:42:30.743Z,68.95
2018-08-02T00:45:02.876Z,69.49
2018-08-02T00:47:34.904Z,68.45
2018-08-02T00:50:06.972Z,68.37
2018-08-02T00:52:39.036Z,68.80
2018-08-02T00:55:11.141Z,68.81
2018-08-02T00:57:43.180Z,68.45
2018-08-02T01:00:15.256Z,69.79
2018-08-02T01:02:47.359Z,69.89
2018-08-02T01:05:19.451Z,68.81
2018-08-02T01:07:52.618Z,67.34
2018-08-02T01:10:24.759Z,67.64
2018-08-02T01:12:56.825Z,67.89
2018-08-02T01:15:28.872Z,68.71
2018-08-02T01:18:00.960Z,68.00
2018-08-02T01:20:33.135Z,68.61
2018-08-02T01:23:05.188Z,67.96
2018-08-02T01:25:37.248Z,69.39
2018-08-02T01:28:09.276Z,68.15
2018-08-02T01:30:41.321Z,68.44
2018-08-02T01:33:13.388Z,68.28
2018-08-02T01:35:45.444Z,69.04
2018-08-02T01:38:17.496Z,69.59
2018-08-02T01:40:49.620Z,69.60
2018-08-02T01:43:21.646Z,70.82
2018-08-02T01:45:53.748Z,70.78
2018-08-02T01:48:25.799Z,71.04
2018-08-02T01:50:57.868Z,71.10
2018-08-02T01:53:29.891Z,71.28
2018-08-02T01:56:02.003Z,72.08
2018-08-02T01:58:34.071Z,72.13
2018-08-02T02:01:06.143Z,71.29
2018-08-02T02:03:38.179Z,71.66
2018-08-02T02:06:10.274Z,72.12
2018-08-02T02:08:42.367Z,72.19
2018-08-02T02:11:14.414Z,72.13
2018-08-02T02:13:46.490Z,72.41
2018-08-02T02:16:18.558Z,72.09
2018-08-02T02:18:50.626Z,72.07
2018-08-02T02:21:22.854Z,71.84
2018-08-02T02:23:54.930Z,72.51
2018-08-02T02:26:27.025Z,72.27
2018-08-02T02:28:59.156Z,72.62
2018-08-02T02:31:31.261Z,71.48
2018-08-02T02:34:03.330Z,72.15
2018-08-02T02:36:35.408Z,72.77
2018-08-02T02:39:09.428Z,73.06
2018-08-02T02:41:41.572Z,72.59
2018-08-02T02:44:13.635Z,72.77
2018-08-02T02:46:45.695Z,72.51
2018-08-02T02:49:17.725Z,72.30
2018-08-02T02:51:49.795Z,72.68
2018-08-02T02:54:21.854Z,72.82
2018-08-02T02:56:54.029Z,73.54
2018-08-02T02:59:26.080Z,73.26
2018-08-02T03:01:58.185Z,73.04
2018-08-02T03:04:30.249Z,72.27
2018-08-02T03:07:02.296Z,72.72
2018-08-02T03:09:34.351Z,72.46
2018-08-02T03:12:06.441Z,72.75
2018-08-02T03:14:38.495Z,73.79
2018-08-02T03:17:10.577Z,73.90
2018-08-02T03:19:42.605Z,73.77
2018-08-02T03:22:14.687Z,72.77
2018-08-02T03:24:46.727Z,73.09
2018-08-02T03:27:18.829Z,73.31
2018-08-02T03:29:50.846Z,73.59
2018-08-02T03:32:22.972Z,74.51
2018-08-02T03:34:55.070Z,74.48
2018-08-02T03:37:27.160Z,73.45
2018-08-02T03:39:59.212Z,73.07
2018-08-02T03:42:31.335Z,73.43
2018-08-02T03:45:03.375Z,73.50
2018-08-02T03:47:35.460Z,73.06
2018-08-02T03:50:07.539Z,73.78
2018-08-02T03:52:39.596Z,73.92
2018-08-02T03:55:11.663Z,74.00
2018-08-02T03:57:43.717Z,74.42
2018-08-02T04:00:15.818Z,73.78
2018-08-02T04:02:47.909Z,73.79
2018-08-02T04:05:20.010Z,74.44
2018-08-02T04:07:52.534Z,74.80
2018-08-02T04:10:24.584Z,74.24
2018-08-02T04:12:56.690Z,74.26
2018-08-02T04:15:28.744Z,74.33
2018-08-02T04:18:00.850Z,75.18
2018-08-02T04:20:32.895Z,75.62
2018-08-02T04:23:05.006Z,75.78
2018-08-02T04:25:37.081Z,75.13
2018-08-02T04:28:09.129Z,74.96
2018-08-02T04:30:41.201Z,74.80
2018-08-02T04:33:13.269Z,74.52
2018-08-02T04:35:45.338Z,74.65
2018-08-02T04:38:17.392Z,74.26
2018-08-02T04:40:49.460Z,74.08
2018-08-02T04:43:21.555Z,74.02
2018-08-02T04:45:53.570Z,74.33
2018-08-02T04:48:25.735Z,73.87
2018-08-02T04:50:57.807Z,73.81
2018-08-02T04:53:29.875Z,73.41
2018-08-02T04:56:01.935Z,72.71
2018-08-02T04:58:34.060Z,72.16
2018-08-02T05:01:06.194Z,71.86
2018-08-02T05:03:38.291Z,71.41
2018-08-02T05:06:10.398Z,69.24
2018-08-02T05:08:42.567Z,66.47
2018-08-02T05:11:14.648Z,63.12
2018-08-02T05:13:46.799Z,60.46
2018-08-02T05:16:18.868Z,57.94
2018-08-02T05:18:51.115Z,57.12
2018-08-02T05:21:23.208Z,56.41
2018-08-02T05:23:55.275Z,56.71
2018-08-02T05:26:27.388Z,57.56
2018-08-02T05:28:59.391Z,59.39
2018-08-02T05:31:31.478Z,59.17
2018-08-02T05:34:03.777Z,58.83
2018-08-02T05:36:35.991Z,58.59
2018-08-02T05:39:08.782Z,57.90
2018-08-02T05:41:40.846Z,58.16
2018-08-02T05:44:12.940Z,56.43
2018-08-02T05:46:44.988Z,55.60
2018-08-02T05:49:17.140Z,53.86
2018-08-02T05:51:49.176Z,53.66
2018-08-02T05:54:21.279Z,52.09
2018-08-02T05:56:53.307Z,54.49
2018-08-02T05:59:25.386Z,54.32
2018-08-02T06:01:57.476Z,54.76
2018-08-02T06:04:29.533Z,52.50
2018-08-02T06:07:01.577Z,53.06
2018-08-02T06:09:33.689Z,50.63
2018-08-02T06:12:06.108Z,49.57
2018-08-02T06:14:38.234Z,52.49
2018-08-02T06:17:10.344Z,57.14
2018-08-02T06:19:42.417Z,56.82
2018-08-02T06:22:14.513Z,54.36
2018-08-02T06:24:46.575Z,53.65
2018-08-02T06:27:18.668Z,51.84
2018-08-02T06:29:50.797Z,51.64
2018-08-02T06:32:22.864Z,48.46
2018-08-02T06:34:55.091Z,47.56
2018-08-02T06:37:27.236Z,44.83
2018-08-02T06:39:59.427Z,48.31
2018-08-02T06:42:31.569Z,49.50
2018-08-02T06:45:04.331Z,53.40
2018-08-02T06:47:39.518Z,54.24
2018-08-02T06:50:12.010Z,53.69
2018-08-02T06:52:44.176Z,48.91
2018-08-02T06:55:16.231Z,48.37
2018-08-02T06:57:48.349Z,50.05
2018-08-02T07:00:20.551Z,49.67
2018-08-02T07:02:52.602Z,45.69
2018-08-02T07:05:24.681Z,45.38
2018-08-02T07:07:56.728Z,46.36
2018-08-02T07:10:28.822Z,49.67
2018-08-02T07:13:00.874Z,49.40
2018-08-02T07:15:32.978Z,48.47
2018-08-02T07:18:05.410Z,44.51
2018-08-02T07:20:37.461Z,40.31
2018-08-02T07:23:09.491Z,40.49
2018-08-02T07:25:41.584Z,41.82
2018-08-02T07:28:13.634Z,39.71
2018-08-02T07:30:45.704Z,39.47
2018-08-02T07:33:18.755Z,43.31
2018-08-02T07:35:51.940Z,44.50
2018-08-02T07:38:24.089Z,44.64
2018-08-02T07:40:56.268Z,44.56
2018-08-02T07:46:11.775Z,44.48
2018-08-02T07:48:43.880Z,40.70
2018-08-02T07:51:15.919Z,39.52
2018-08-02T07:53:48.295Z,38.43
2018-08-02T07:56:20.417Z,38.39
2018-08-02T07:58:52.591Z,38.62
2018-08-02T08:01:24.969Z,37.14
2018-08-02T08:03:57.134Z,35.00
2018-08-02T08:06:29.211Z,35.15
2018-08-02T08:09:01.424Z,34.51
2018-08-02T08:11:33.482Z,33.02
2018-08-02T08:14:05.602Z,32.90
2018-08-02T08:16:37.806Z,32.34
2018-08-02T08:19:09.847Z,31.35
2018-08-02T08:21:42.260Z,33.17
2018-08-02T08:24:14.259Z,32.00
2018-08-02T08:26:46.309Z,34.59
2018-08-02T08:29:18.510Z,34.54
2018-08-02T08:31:50.804Z,33.92
2018-08-02T08:34:22.930Z,33.68
2018-08-02T08:37:10.096Z,32.53
2018-08-02T08:39:34.820Z,32.12
2018-08-02T08:42:07.021Z,29.32
2018-08-02T08:44:39.121Z,29.50
2018-08-02T08:47:11.213Z,30.09
2018-08-02T08:49:45.896Z,30.22
2018-08-02T08:52:18.004Z,30.76
2018-08-02T08:54:50.005Z,30.80
2018-08-02T08:57:22.079Z,32.27
2018-08-02T08:59:54.627Z,31.30
2018-08-02T09:02:26.722Z,31.74
2018-08-02T09:04:58.811Z,32.65
2018-08-02T09:07:30.886Z,30.44
2018-08-02T09:10:03.108Z,32.28
2018-08-02T09:12:35.196Z,32.76
2018-08-02T09:15:08.263Z,33.32
2018-08-02T09:17:40.353Z,32.55
2018-08-02T09:20:12.440Z,30.39
2018-08-02T09:22:44.539Z,31.37
2018-08-02T09:25:16.574Z,32.65
2018-08-02T09:27:48.616Z,31.30
2018-08-02T09:30:20.762Z,31.68
2018-08-02T09:32:53.092Z,30.84
2018-08-02T09:35:24.947Z,31.51
2018-08-02T09:37:57.067Z,31.51
2018-08-02T09:40:29.235Z,33.27
2018-08-02T09:43:01.348Z,32.22
2018-08-02T09:45:33.499Z,33.63
2018-08-02T09:48:05.619Z,33.18
2018-08-02T09:50:37.728Z,31.83
2018-08-02T09:53:09.867Z,31.51
2018-08-02T09:55:41.922Z,31.17
2018-08-02T09:58:14.003Z,33.08
2018-08-02T10:00:51.600Z,32.61
2018-08-02T10:03:23.658Z,32.07
2018-08-02T10:05:55.714Z,33.12
2018-08-02T10:08:27.795Z,31.61
2018-08-02T10:10:59.941Z,31.21
2018-08-02T10:13:32.007Z,30.44
2018-08-02T10:16:04.118Z,30.52
2018-08-02T10:18:36.154Z,31.25
2018-08-02T10:21:08.209Z,29.39
2018-08-02T10:23:41.304Z,29.56
2018-08-02T10:26:13.351Z,29.63
2018-08-02T10:28:45.440Z,30.55
2018-08-02T10:31:17.486Z,30.00
2018-08-02T10:33:49.547Z,30.94
2018-08-02T10:36:21.595Z,28.31
2018-08-02T10:38:54.003Z,30.16
2018-08-02T10:41:26.182Z,30.14
2018-08-02T10:43:58.449Z,29.34
2018-08-02T10:46:30.654Z,29.83
2018-08-02T10:49:03.840Z,29.82
2018-08-02T10:51:35.897Z,29.90
2018-08-02T10:54:08.290Z,31.11
2018-08-02T10:56:40.448Z,30.06
2018-08-02T10:59:12.503Z,28.94
2018-08-02T11:01:44.603Z,30.78
2018-08-02T11:04:17.651Z,30.54
2018-08-02T11:06:49.725Z,29.85
2018-08-02T11:09:21.810Z,29.78
2018-08-02T11:11:53.975Z,29.86
2018-08-02T11:14:26.185Z,28.96
2018-08-02T11:16:58.257Z,28.14
2018-08-02T11:19:30.367Z,28.98
2018-08-02T11:22:02.421Z,29.53
2018-08-02T11:24:34.480Z,28.35
2018-08-02T11:27:06.606Z,26.96
2018-08-02T11:29:38.660Z,27.12
2018-08-02T11:32:10.835Z,28.18
2018-08-02T11:34:42.911Z,26.83
2018-08-02T11:37:14.974Z,27.61
2018-08-02T11:39:47.340Z,28.95
2018-08-02T11:42:19.422Z,28.56
2018-08-02T11:44:51.525Z,27.31
2018-08-02T11:47:23.558Z,26.93
2018-08-02T11:49:55.638Z,27.92
2018-08-02T11:52:27.677Z,28.87
2018-08-02T11:54:59.752Z,26.75
2018-08-02T11:57:31.935Z,27.46
2018-08-02T12:00:04.566Z,28.11
2018-08-02T12:02:36.640Z,27.21
2018-08-02T12:05:15.911Z,27.56
2018-08-02T12:07:48.198Z,24.01
2018-08-02T12:10:20.322Z,25.29
2018-08-02T12:12:52.431Z,25.34
2018-08-02T12:15:25.642Z,26.17
2018-08-02T12:17:57.686Z,24.39
2018-08-02T12:20:29.838Z,26.20
2018-08-02T12:23:01.881Z,23.93
2018-08-02T12:25:33.945Z,22.30
2018-08-02T12:28:06.034Z,23.94
2018-08-02T12:30:39.342Z,27.75
2018-08-02T12:33:11.429Z,37.54
2018-08-02T12:35:43.530Z,41.61
2018-08-02T12:38:15.646Z,49.73
2018-08-02T12:40:47.795Z,55.90
2018-08-02T12:43:19.859Z,61.81
2018-08-02T12:45:51.983Z,72.62
2018-08-02T12:48:24.066Z,88.73
2018-08-02T12:50:56.168Z,95.60
2018-08-02T12:53:28.239Z,99.54
2018-08-02T12:56:00.425Z,100.00
2018-08-02T12:58:32.400Z,100.00
2018-08-02T13:01:04.459Z,100.00
2018-08-02T13:03:36.450Z,100.00
2018-08-02T13:06:08.459Z,100.00
2018-08-02T13:08:40.495Z,100.00
2018-08-02T13:11:12.517Z,100.00
2018-08-02T13:13:44.591Z,100.00
2018-08-02T13:16:16.599Z,100.00
2018-08-02T13:18:48.551Z,100.00
2018-08-02T13:21:20.528Z,100.00
2018-08-02T13:23:52.493Z,100.00
2018-08-02T13:26:24.458Z,100.00
2018-08-02T13:28:56.419Z,100.00
2018-08-02T13:31:28.405Z,100.00
2018-08-02T13:34:00.348Z,100.00
2018-08-02T13:36:32.331Z,100.00
2018-08-02T13:39:05.657Z,100.00
2018-08-02T13:41:37.631Z,100.00
2018-08-02T13:44:09.611Z,100.00
2018-08-02T13:46:41.563Z,100.00
2018-08-02T13:49:13.539Z,100.00
2018-08-02T13:51:45.532Z,100.00
2018-08-02T13:54:17.503Z,100.00
2018-08-02T13:56:49.468Z,100.00
2018-08-02T13:59:21.450Z,100.00
2018-08-02T14:01:53.415Z,100.00
2018-08-02T14:04:25.377Z,100.00
2018-08-02T14:06:57.355Z,100.00
2018-08-02T14:09:29.335Z,100.00
2018-08-02T14:12:01.318Z,100.00
2018-08-02T14:14:33.352Z,100.00
2018-08-02T14:17:05.595Z,100.00
2018-08-02T14:19:37.766Z,100.00
2018-08-02T14:22:09.838Z,100.00
2018-08-02T14:24:41.739Z,100.00
2018-08-02T14:27:13.703Z,100.00
2018-08-02T14:29:45.779Z,100.00
2018-08-02T14:32:17.766Z,100.00
2018-08-02T14:34:49.782Z,100.00
2018-08-02T14:37:21.767Z,100.00
2018-08-02T14:39:53.734Z,100.00
2018-08-02T14:42:25.808Z,100.00
2018-08-02T14:44:57.755Z,100.00
2018-08-02T14:47:29.718Z,100.00
2018-08-02T14:50:01.786Z,100.00
2018-08-02T14:52:33.772Z,100.00
2018-08-02T14:55:05.773Z,100.00
2018-08-02T14:57:37.742Z,100.00
2018-08-02T15:00:09.719Z,100.00
2018-08-02T15:02:41.694Z,100.00
2018-08-02T15:05:13.770Z,100.00
2018-08-02T15:07:45.748Z,100.00
2018-08-02T15:10:17.718Z,100.00
2018-08-02T15:12:49.702Z,100.00
2018-08-02T15:15:21.666Z,100.00
2018-08-02T15:17:53.651Z,100.00
2018-08-02T15:20:25.617Z,100.00
2018-08-02T15:22:57.609Z,100.00
2018-08-02T15:25:29.583Z,100.00
2018-08-02T15:28:01.655Z,100.00
2018-08-02T15:30:33.736Z,100.00
2018-08-02T15:33:05.787Z,100.00
2018-08-02T15:35:37.843Z,100.00
2018-08-02T15:38:09.902Z,100.00
2018-08-02T15:40:41.886Z,100.00
2018-08-02T15:43:13.850Z,100.00
2018-08-02T15:45:45.921Z,100.00
2018-08-02T15:48:17.975Z,100.00
2018-08-02T15:50:50.033Z,100.00
2018-08-02T15:53:22.083Z,100.00
2018-08-02T15:55:54.142Z,100.00
2018-08-02T15:58:26.271Z,100.00
2018-08-02T16:00:58.343Z,100.00
2018-08-02T16:03:30.406Z,100.00
2018-08-02T16:06:02.394Z,100.00
2018-08-02T16:08:34.510Z,100.00
2018-08-02T16:11:06.690Z,100.00
2018-08-02T16:13:38.731Z,100.00
2018-08-02T16:16:10.759Z,100.00
2018-08-02T16:18:42.794Z,100.00
2018-08-02T16:21:14.850Z,100.00
2018-08-02T16:23:46.893Z,100.00
2018-08-02T16:26:18.986Z,100.00
2018-08-02T16:28:51.075Z,100.00
2018-08-02T16:31:23.114Z,100.00
2018-08-02T16:33:55.138Z,100.00
2018-08-02T16:36:27.203Z,100.00
2018-08-02T16:38:59.210Z,100.00
2018-08-02T16:41:31.271Z,100.00
2018-08-02T16:44:03.281Z,100.00
2018-08-02T16:46:35.306Z,100.00
2018-08-02T16:49:08.007Z,100.00
2018-08-02T16:51:40.124Z,100.00
2018-08-02T16:54:12.527Z,99.49
2018-08-02T16:56:44.583Z,100.00
2018-08-02T16:59:16.643Z,100.00
2018-08-02T17:01:48.676Z,99.65
2018-08-02T17:04:20.727Z,97.04
2018-08-02T17:06:53.091Z,99.36
2018-08-02T17:09:25.140Z,98.66
2018-08-02T17:11:57.187Z,98.55
2018-08-02T17:14:29.221Z,98.91
2018-08-02T17:17:02.397Z,98.94
2018-08-02T17:19:34.584Z,96.45
2018-08-02T17:22:06.626Z,96.78
2018-08-02T17:24:38.665Z,95.55
2018-08-02T17:27:10.720Z,95.04
2018-08-02T17:29:42.776Z,96.34
2018-08-02T17:32:14.806Z,95.50
2018-08-02T17:34:46.871Z,95.09
2018-08-02T17:37:18.960Z,96.05
2018-08-02T17:39:51.014Z,95.69
2018-08-02T17:42:23.035Z,95.52
2018-08-02T17:44:55.146Z,94.43
2018-08-02T17:47:27.170Z,95.96
2018-08-02T17:49:59.239Z,97.32
2018-08-02T17:52:31.263Z,94.35
2018-08-02T17:55:03.564Z,94.77
2018-08-02T17:57:35.594Z,95.86
2018-08-02T18:00:07.667Z,96.14
2018-08-02T18:02:39.690Z,96.92
2018-08-02T18:05:11.716Z,97.28
2018-08-02T18:07:43.751Z,97.18
2018-08-02T18:10:15.775Z,97.60
2018-08-02T18:12:47.759Z,98.12
2018-08-02T18:15:19.819Z,97.82
2018-08-02T18:17:51.891Z,97.98
2018-08-02T18:20:23.917Z,97.05
2018-08-02T18:22:55.907Z,98.29
2018-08-02T18:25:27.936Z,96.89
2018-08-02T18:27:59.999Z,97.69
2018-08-02T18:30:32.089Z,98.38
2018-08-02T18:33:04.052Z,100.00
2018-08-02T18:35:36.048Z,100.00
2018-08-02T18:38:08.104Z,100.00
2018-08-02T18:40:40.173Z,100.00
2018-08-02T18:43:12.173Z,100.00
2018-08-02T18:45:44.309Z,100.00
2018-08-02T18:48:16.332Z,100.00
2018-08-02T18:50:48.607Z,100.00
2018-08-02T18:53:20.732Z,100.00
2018-08-02T18:55:52.763Z,100.00
2018-08-02T18:58:24.787Z,100.00
2018-08-02T19:00:56.894Z,100.00
2018-08-02T19:03:28.943Z,100.00
2018-08-02T19:06:01.040Z,100.00
2018-08-02T19:08:33.097Z,100.00
2018-08-02T19:11:05.360Z,100.00
2018-08-02T19:13:37.428Z,100.00
2018-08-02T19:16:11.549Z,100.00
2018-08-02T19:18:43.825Z,100.00
2018-08-02T19:21:15.953Z,100.00
2018-08-02T19:23:47.965Z,100.00
2018-08-02T19:26:20.085Z,100.00
2018-08-02T19:28:52.148Z,100.00
2018-08-02T19:31:24.265Z,100.00
2018-08-02T19:33:56.271Z,100.00
2018-08-02T19:39:09.342Z,100.00
2018-08-02T19:41:41.857Z,100.00
2018-08-02T19:44:13.880Z,100.00
2018-08-02T19:46:45.984Z,100.00
2018-08-02T19:49:18.021Z,100.00
2018-08-02T19:51:50.104Z,100.00
2018-08-02T19:54:22.109Z,100.00
2018-08-02T19:56:54.167Z,100.00
2018-08-02T19:59:26.225Z,100.00
2018-08-02T20:01:58.357Z,100.00
2018-08-02T20:04:30.514Z,100.00
2018-08-02T20:07:02.541Z,100.00
2018-08-02T20:09:34.565Z,100.00
2018-08-02T20:12:06.644Z,100.00
2018-08-02T20:14:38.775Z,100.00
2018-08-02T20:17:10.828Z,100.00
2018-08-02T20:19:42.897Z,100.00
2018-08-02T20:22:17.641Z,100.00
2018-08-02T20:24:49.583Z,100.00
2018-08-02T20:27:21.648Z,100.00
2018-08-02T20:29:53.698Z,100.00
2018-08-02T20:32:25.821Z,100.00
2018-08-02T20:34:57.893Z,100.00
2018-08-02T20:37:30.016Z,100.00
2018-08-02T20:40:02.227Z,100.00
2018-08-02T20:42:34.271Z,100.00
2018-08-02T20:45:06.716Z,100.00
2018-08-02T20:47:38.785Z,100.00
2018-08-02T20:50:10.848Z,100.00
2018-08-02T20:52:42.856Z,100.00
2018-08-02T20:55:14.993Z,100.00
2018-08-02T20:57:47.089Z,100.00
2018-08-02T21:00:19.164Z,100.00
2018-08-02T21:02:51.216Z,100.00
2018-08-02T21:05:23.213Z,100.00
2018-08-02T21:07:55.249Z,100.00
2018-08-02T21:10:27.272Z,100.00
2018-08-02T21:12:59.354Z,100.00
2018-08-02T21:15:31.315Z,100.00
2018-08-02T21:18:03.751Z,100.00
2018-08-02T21:20:35.756Z,100.00
2018-08-02T21:23:07.809Z,100.00
2018-08-02T21:25:39.842Z,100.00
2018-08-02T21:28:11.879Z,100.00
2018-08-02T21:30:43.892Z,100.00
2018-08-02T21:33:15.919Z,100.00
2018-08-02T21:35:47.989Z,100.00
2018-08-02T21:38:20.101Z,100.00
2018-08-02T21:40:52.140Z,100.00
2018-08-02T21:43:24.236Z,100.00
2018-08-02T21:45:56.219Z,100.00
2018-08-02T21:48:28.241Z,100.00
2018-08-02T21:51:00.259Z,100.00
2018-08-02T21:53:32.300Z,100.00
2018-08-02T21:56:04.384Z,100.00
2018-08-02T21:58:36.427Z,100.00
2018-08-02T22:01:08.475Z,100.00
2018-08-02T22:03:40.558Z,100.00
2018-08-02T22:06:18.274Z,100.00
2018-08-02T22:08:50.295Z,100.00
2018-08-02T22:11:28.077Z,100.00
2018-08-02T22:14:05.758Z,100.00
2018-08-02T22:16:37.796Z,100.00
2018-08-02T22:19:09.919Z,100.00
2018-08-02T22:21:41.983Z,100.00
2018-08-02T22:24:14.050Z,100.00
2018-08-02T22:26:46.096Z,100.00
2018-08-02T22:29:18.116Z,100.00
2018-08-02T22:31:50.127Z,100.00
2018-08-02T22:34:22.180Z,100.00
2018-08-02T22:36:54.184Z,100.00
2018-08-02T22:39:26.239Z,100.00
2018-08-02T22:41:58.242Z,100.00
2018-08-02T22:44:30.355Z,100.00
2018-08-02T22:47:02.332Z,100.00
2018-08-02T22:49:34.336Z,100.00
2018-08-02T22:52:06.499Z,100.00
2018-08-02T22:54:38.491Z,100.00
2018-08-02T22:57:10.553Z,100.00
2018-08-02T22:59:42.554Z,100.00
2018-08-02T23:02:14.622Z,100.00
2018-08-02T23:04:46.665Z,100.00
2018-08-02T23:07:18.851Z,100.00
2018-08-02T23:09:51.063Z,100.00
2018-08-02T23:12:23.103Z,100.00
2018-08-02T23:14:55.260Z,100.00
2018-08-02T23:17:27.252Z,100.00
2018-08-02T23:19:59.239Z,100.00
2018-08-02T23:22:31.247Z,100.00
2018-08-02T23:25:03.302Z,100.00
2018-08-02T23:27:35.417Z,100.00
2018-08-02T23:30:07.607Z,100.00
2018-08-02T23:32:39.752Z,100.00
2018-08-02T23:35:11.928Z,100.00
2018-08-02T23:37:43.929Z,100.00
2018-08-02T23:40:15.978Z,100.00
2018-08-02T23:42:47.982Z,100.00
2018-08-02T23:45:20.077Z,100.00
2018-08-02T23:47:52.171Z,100.00
2018-08-02T23:50:24.230Z,100.00
2018-08-02T23:52:56.323Z,100.00
2018-08-02T23:55:28.434Z,100.00
2018-08-02T23:58:00.650Z,100.00
